sensor_id;sensor_type;location;lat;lon;timestamp;pressure;altitude;pressure_sealevel;temperature;humidity
23253;BME280;11795;47.054;15.408;2022-12-10T00:00:35;95830;;;3.4;98.7
23253;BME280;11795;47.054;15.408;2022-12-10T00:02:35;95830;;;3.5;99.1
23253;BME280;11795;47.054;15.408;2022-12-10T00:04:35;95830;;;3.5;98.6
23253;BME280;11795;47.054;15.408;2022-12-10T00:06:36;95840;;;3.4;98.9
23253;BME280;11795;47.054;15.408;2022-12-10T00:08:35;95840;;;3.6;98.5
23253;BME280;11795;47.054;15.408;2022-12-10T00:10:39;95850;;;3.4;98.7
23253;BME280;11795;47.054;15.408;2022-12-10T00:12:35;95850;;;3.5;99.0
23253;BME280;11795;47.054;15.408;2022-12-10T00:14:35;95840;;;3.6;98.1
23253;BME280;11795;47.054;15.408;2022-12-10T00:16:35;95850;;;3.4;98.2
23253;BME280;11795;47.054;15.408;2022-12-10T00:18:36;95850;;;3.6;97.8
23253;BME280;11795;47.054;15.408;2022-12-10T00:20:36;95860;;;3.5;97.6
23253;BME280;11795;47.054;15.408;2022-12-10T00:22:35;95860;;;3.5;97.9
23253;BME280;11795;47.054;15.408;2022-12-10T00:24:35;95860;;;3.4;97.9
23253;BME280;11795;47.054;15.408;2022-12-10T00:26:37;95860;;;3.3;98.4
23253;BME280;11795;47.054;15.408;2022-12-10T00:28:35;95860;;;3.5;98.2
23253;BME280;11795;47.054;15.408;2022-12-10T00:30:35;95860;;;3.4;98.6
23253;BME280;11795;47.054;15.408;2022-12-10T00:32:35;95860;;;3.5;98.8
23253;BME280;11795;47.054;15.408;2022-12-10T00:34:35;95860;;;3.5;98.5
23253;BME280;11795;47.054;15.408;2022-12-10T00:36:38;95870;;;3.4;98.9
23253;BME280;11795;47.054;15.408;2022-12-10T00:38:36;95870;;;3.5;98.6
23253;BME280;11795;47.054;15.408;2022-12-10T00:40:35;95870;;;3.5;98.7
23253;BME280;11795;47.054;15.408;2022-12-10T00:42:35;95870;;;3.5;99.0
23253;BME280;11795;47.054;15.408;2022-12-10T00:44:35;95870;;;3.5;98.8
23253;BME280;11795;47.054;15.408;2022-12-10T00:46:35;95870;;;3.4;99.1
23253;BME280;11795;47.054;15.408;2022-12-10T00:48:35;95880;;;3.6;98.8
23253;BME280;11795;47.054;15.408;2022-12-10T00:50:35;95880;;;3.4;99.2
23253;BME280;11795;47.054;15.408;2022-12-10T00:52:35;95870;;;3.5;99.4
23253;BME280;11795;47.054;15.408;2022-12-10T00:54:35;95870;;;3.5;99.0
23253;BME280;11795;47.054;15.408;2022-12-10T00:56:35;95880;;;3.4;99.4
23253;BME280;11795;47.054;15.408;2022-12-10T00:58:37;95880;;;3.6;99.1
23253;BME280;11795;47.054;15.408;2022-12-10T01:00:35;95890;;;3.5;99.3
23253;BME280;11795;47.054;15.408;2022-12-10T01:02:35;95890;;;3.6;99.5
23253;BME280;11795;47.054;15.408;2022-12-10T01:04:35;95890;;;3.6;99.0
23253;BME280;11795;47.054;15.408;2022-12-10T01:06:42;95900;;;3.5;99.3
23253;BME280;11795;47.054;15.408;2022-12-10T01:08:35;95900;;;3.7;99.1
23253;BME280;11795;47.054;15.408;2022-12-10T01:10:35;95900;;;3.5;99.2
23253;BME280;11795;47.054;15.408;2022-12-10T01:12:35;95910;;;3.7;99.4
23253;BME280;11795;47.054;15.408;2022-12-10T01:14:36;95910;;;3.6;99.0
23253;BME280;11795;47.054;15.408;2022-12-10T01:16:36;95920;;;3.6;99.4
23253;BME280;11795;47.054;15.408;2022-12-10T01:18:35;95920;;;3.7;98.6
23253;BME280;11795;47.054;15.408;2022-12-10T01:20:36;95920;;;3.6;98.5
23253;BME280;11795;47.054;15.408;2022-12-10T01:22:35;95930;;;3.6;98.7
23253;BME280;11795;47.054;15.408;2022-12-10T01:24:35;95930;;;3.6;98.5
23253;BME280;11795;47.054;15.408;2022-12-10T01:26:35;95940;;;3.6;98.9
23253;BME280;11795;47.054;15.408;2022-12-10T01:28:37;95940;;;3.7;98.5
23253;BME280;11795;47.054;15.408;2022-12-10T01:30:35;95940;;;3.6;98.8
23253;BME280;11795;47.054;15.408;2022-12-10T01:32:35;95940;;;3.7;99.2
23253;BME280;11795;47.054;15.408;2022-12-10T01:34:35;95940;;;3.6;99.0
23253;BME280;11795;47.054;15.408;2022-12-10T01:36:37;95950;;;3.5;99.4
23253;BME280;11795;47.054;15.408;2022-12-10T01:38:36;95950;;;3.7;99.1
23253;BME280;11795;47.054;15.408;2022-12-10T01:40:37;95950;;;3.7;99.3
23253;BME280;11795;47.054;15.408;2022-12-10T01:42:35;95950;;;3.7;99.3
23253;BME280;11795;47.054;15.408;2022-12-10T01:46:37;95960;;;3.6;99.1
23253;BME280;11795;47.054;15.408;2022-12-10T01:48:35;95960;;;3.8;98.9
23253;BME280;11795;47.054;15.408;2022-12-10T01:50:35;95950;;;3.7;99.2
23253;BME280;11795;47.054;15.408;2022-12-10T01:52:36;95950;;;3.8;99.5
23253;BME280;11795;47.054;15.408;2022-12-10T01:54:38;95950;;;3.7;99.1
23253;BME280;11795;47.054;15.408;2022-12-10T01:56:40;95960;;;3.7;99.5
23253;BME280;11795;47.054;15.408;2022-12-10T01:58:36;95960;;;3.9;99.3
23253;BME280;11795;47.054;15.408;2022-12-10T02:00:45;95960;;;3.8;99.2
23253;BME280;11795;47.054;15.408;2022-12-10T02:02:42;95960;;;3.9;99.2
23253;BME280;11795;47.054;15.408;2022-12-10T02:04:45;95950;;;3.8;98.8
23253;BME280;11795;47.054;15.408;2022-12-10T02:06:44;95950;;;3.7;99.2
23253;BME280;11795;47.054;15.408;2022-12-10T02:08:41;95950;;;3.9;99.0
23253;BME280;11795;47.054;15.408;2022-12-10T02:10:49;95940;;;3.8;99.2
23253;BME280;11795;47.054;15.408;2022-12-10T02:12:40;95940;;;3.8;99.5
23253;BME280;11795;47.054;15.408;2022-12-10T02:14:43;95940;;;3.9;99.0
23253;BME280;11795;47.054;15.408;2022-12-10T02:16:38;95930;;;3.8;99.3
23253;BME280;11795;47.054;15.408;2022-12-10T02:18:37;95940;;;4.0;99.0
23253;BME280;11795;47.054;15.408;2022-12-10T02:20:39;95940;;;3.9;99.2
23253;BME280;11795;47.054;15.408;2022-12-10T02:22:38;95930;;;3.9;99.5
23253;BME280;11795;47.054;15.408;2022-12-10T02:24:36;95930;;;3.9;99.0
23253;BME280;11795;47.054;15.408;2022-12-10T02:26:42;95940;;;3.8;99.4
23253;BME280;11795;47.054;15.408;2022-12-10T02:28:39;95940;;;4.0;99.0
23253;BME280;11795;47.054;15.408;2022-12-10T02:30:36;95940;;;3.9;99.2
23253;BME280;11795;47.054;15.408;2022-12-10T02:32:37;95940;;;3.9;99.6
23253;BME280;11795;47.054;15.408;2022-12-10T02:34:42;95950;;;4.0;99.2
23253;BME280;11795;47.054;15.408;2022-12-10T02:36:38;95950;;;3.9;99.5
23253;BME280;11795;47.054;15.408;2022-12-10T02:38:36;95950;;;4.1;99.1
23253;BME280;11795;47.054;15.408;2022-12-10T02:40:37;95940;;;4.0;99.3
23253;BME280;11795;47.054;15.408;2022-12-10T02:42:38;95940;;;4.0;99.7
23253;BME280;11795;47.054;15.408;2022-12-10T02:44:36;95950;;;4.0;99.2
23253;BME280;11795;47.054;15.408;2022-12-10T02:46:36;95950;;;4.0;99.5
23253;BME280;11795;47.054;15.408;2022-12-10T02:48:36;95960;;;4.2;99.2
23253;BME280;11795;47.054;15.408;2022-12-10T02:50:35;95960;;;4.0;99.4
23253;BME280;11795;47.054;15.408;2022-12-10T02:52:36;95950;;;4.1;99.7
23253;BME280;11795;47.054;15.408;2022-12-10T02:54:39;95960;;;4.1;99.2
23253;BME280;11795;47.054;15.408;2022-12-10T02:56:40;95950;;;4.0;99.5
23253;BME280;11795;47.054;15.408;2022-12-10T02:58:41;95950;;;4.2;99.2
23253;BME280;11795;47.054;15.408;2022-12-10T03:00:42;95950;;;4.1;99.4
23253;BME280;11795;47.054;15.408;2022-12-10T03:02:44;95960;;;4.1;99.8
23253;BME280;11795;47.054;15.408;2022-12-10T03:04:40;95970;;;4.2;99.3
23253;BME280;11795;47.054;15.408;2022-12-10T03:06:38;95970;;;4.1;99.7
23253;BME280;11795;47.054;15.408;2022-12-10T03:08:40;95980;;;4.3;99.3
23253;BME280;11795;47.054;15.408;2022-12-10T03:10:42;95980;;;4.2;99.4
23253;BME280;11795;47.054;15.408;2022-12-10T03:12:38;95970;;;4.2;99.8
23253;BME280;11795;47.054;15.408;2022-12-10T03:14:36;95970;;;4.2;99.3
23253;BME280;11795;47.054;15.408;2022-12-10T03:16:38;95970;;;4.2;99.7
23253;BME280;11795;47.054;15.408;2022-12-10T03:18:36;95970;;;4.4;99.4
23253;BME280;11795;47.054;15.408;2022-12-10T03:20:38;95980;;;4.2;99.5
23253;BME280;11795;47.054;15.408;2022-12-10T03:22:38;95980;;;4.2;99.8
23253;BME280;11795;47.054;15.408;2022-12-10T03:24:36;95980;;;4.3;99.2
23253;BME280;11795;47.054;15.408;2022-12-10T03:26:37;95990;;;4.2;99.5
23253;BME280;11795;47.054;15.408;2022-12-10T03:28:38;95990;;;4.4;99.1
23253;BME280;11795;47.054;15.408;2022-12-10T03:30:37;95990;;;4.2;99.3
23253;BME280;11795;47.054;15.408;2022-12-10T03:32:36;95990;;;4.2;99.7
23253;BME280;11795;47.054;15.408;2022-12-10T03:34:36;95990;;;4.3;99.1
23253;BME280;11795;47.054;15.408;2022-12-10T03:36:36;95990;;;4.2;99.5
23253;BME280;11795;47.054;15.408;2022-12-10T03:38:36;95990;;;4.4;99.1
23253;BME280;11795;47.054;15.408;2022-12-10T03:40:36;95990;;;4.2;99.5
23253;BME280;11795;47.054;15.408;2022-12-10T03:42:36;95990;;;4.3;99.7
23253;BME280;11795;47.054;15.408;2022-12-10T03:44:37;95990;;;4.3;99.3
23253;BME280;11795;47.054;15.408;2022-12-10T03:46:36;95990;;;4.2;99.6
23253;BME280;11795;47.054;15.408;2022-12-10T03:48:35;95990;;;4.4;99.2
23253;BME280;11795;47.054;15.408;2022-12-10T03:50:35;96000;;;4.3;99.4
23253;BME280;11795;47.054;15.408;2022-12-10T03:52:35;96000;;;4.3;99.6
23253;BME280;11795;47.054;15.408;2022-12-10T03:54:36;96000;;;4.4;98.8
23253;BME280;11795;47.054;15.408;2022-12-10T03:56:35;96010;;;4.3;99.1
23253;BME280;11795;47.054;15.408;2022-12-10T03:58:36;96010;;;4.4;98.9
23253;BME280;11795;47.054;15.408;2022-12-10T04:00:36;96010;;;4.3;99.2
23253;BME280;11795;47.054;15.408;2022-12-10T04:02:35;96010;;;4.3;99.6
23253;BME280;11795;47.054;15.408;2022-12-10T04:04:36;95990;;;4.3;99.2
23253;BME280;11795;47.054;15.408;2022-12-10T04:06:37;96000;;;4.2;99.5
23253;BME280;11795;47.054;15.408;2022-12-10T04:08:36;96000;;;4.4;99.2
23253;BME280;11795;47.054;15.408;2022-12-10T04:10:36;95990;;;4.3;99.4
23253;BME280;11795;47.054;15.408;2022-12-10T04:12:35;95990;;;4.2;99.8
23253;BME280;11795;47.054;15.408;2022-12-10T04:14:45;95990;;;4.3;99.3
23253;BME280;11795;47.054;15.408;2022-12-10T04:16:36;95990;;;4.2;99.7
23253;BME280;11795;47.054;15.408;2022-12-10T04:18:35;95990;;;4.4;99.4
23253;BME280;11795;47.054;15.408;2022-12-10T04:20:45;95990;;;4.3;99.5
23253;BME280;11795;47.054;15.408;2022-12-10T04:22:45;95990;;;4.3;99.8
23253;BME280;11795;47.054;15.408;2022-12-10T04:24:45;96000;;;4.3;99.3
23253;BME280;11795;47.054;15.408;2022-12-10T04:26:45;96010;;;4.2;99.6
23253;BME280;11795;47.054;15.408;2022-12-10T04:28:36;96010;;;4.4;99.4
23253;BME280;11795;47.054;15.408;2022-12-10T04:30:37;96010;;;4.3;99.4
23253;BME280;11795;47.054;15.408;2022-12-10T04:32:36;96010;;;4.2;99.8
23253;BME280;11795;47.054;15.408;2022-12-10T04:34:36;96010;;;4.3;99.3
23253;BME280;11795;47.054;15.408;2022-12-10T04:36:36;96010;;;4.3;99.5
23253;BME280;11795;47.054;15.408;2022-12-10T04:38:36;96010;;;4.4;99.0
23253;BME280;11795;47.054;15.408;2022-12-10T04:40:36;96020;;;4.3;99.1
23253;BME280;11795;47.054;15.408;2022-12-10T04:42:36;96020;;;4.2;99.6
23253;BME280;11795;47.054;15.408;2022-12-10T04:44:36;96010;;;4.4;99.0
23253;BME280;11795;47.054;15.408;2022-12-10T04:46:36;96010;;;4.2;99.2
23253;BME280;11795;47.054;15.408;2022-12-10T04:48:36;96010;;;4.4;99.0
23253;BME280;11795;47.054;15.408;2022-12-10T04:50:36;96020;;;4.2;99.2
23253;BME280;11795;47.054;15.408;2022-12-10T04:52:36;96030;;;4.2;99.6
23253;BME280;11795;47.054;15.408;2022-12-10T04:54:36;96030;;;4.3;98.8
23253;BME280;11795;47.054;15.408;2022-12-10T04:56:36;96030;;;4.2;98.6
23253;BME280;11795;47.054;15.408;2022-12-10T04:58:36;96040;;;4.4;98.3
23253;BME280;11795;47.054;15.408;2022-12-10T05:00:36;96040;;;4.2;98.3
23253;BME280;11795;47.054;15.408;2022-12-10T05:02:36;96030;;;4.1;98.8
23253;BME280;11795;47.054;15.408;2022-12-10T05:04:36;96030;;;4.2;98.6
23253;BME280;11795;47.054;15.408;2022-12-10T05:06:36;96030;;;4.1;99.2
23253;BME280;11795;47.054;15.408;2022-12-10T05:08:36;96030;;;4.3;99.0
23253;BME280;11795;47.054;15.408;2022-12-10T05:10:36;96030;;;4.2;99.3
23253;BME280;11795;47.054;15.408;2022-12-10T05:12:36;96040;;;4.1;99.6
23253;BME280;11795;47.054;15.408;2022-12-10T05:14:36;96040;;;4.2;99.2
23253;BME280;11795;47.054;15.408;2022-12-10T05:16:36;96050;;;4.2;99.5
23253;BME280;11795;47.054;15.408;2022-12-10T05:18:36;96050;;;4.3;99.4
23253;BME280;11795;47.054;15.408;2022-12-10T05:20:36;96050;;;4.2;99.6
23253;BME280;11795;47.054;15.408;2022-12-10T05:22:45;96050;;;4.2;100.0
23253;BME280;11795;47.054;15.408;2022-12-10T05:24:36;96050;;;4.3;99.5
23253;BME280;11795;47.054;15.408;2022-12-10T05:26:36;96050;;;4.2;99.8
23253;BME280;11795;47.054;15.408;2022-12-10T05:28:38;96050;;;4.4;99.6
23253;BME280;11795;47.054;15.408;2022-12-10T05:30:36;96050;;;4.2;99.7
23253;BME280;11795;47.054;15.408;2022-12-10T05:32:36;96050;;;4.2;100.0
23253;BME280;11795;47.054;15.408;2022-12-10T05:34:36;96040;;;4.3;99.7
23253;BME280;11795;47.054;15.408;2022-12-10T05:36:36;96040;;;4.2;100.0
23253;BME280;11795;47.054;15.408;2022-12-10T05:38:36;96030;;;4.4;99.8
23253;BME280;11795;47.054;15.408;2022-12-10T05:40:36;96030;;;4.3;99.8
23253;BME280;11795;47.054;15.408;2022-12-10T05:42:36;96030;;;4.2;100.0
23253;BME280;11795;47.054;15.408;2022-12-10T05:44:36;96030;;;4.3;99.7
23253;BME280;11795;47.054;15.408;2022-12-10T05:46:36;96030;;;4.2;100.0
23253;BME280;11795;47.054;15.408;2022-12-10T05:48:36;96030;;;4.4;99.9
23253;BME280;11795;47.054;15.408;2022-12-10T05:50:36;96030;;;4.3;100.0
23253;BME280;11795;47.054;15.408;2022-12-10T05:52:36;96030;;;4.2;100.0
23253;BME280;11795;47.054;15.408;2022-12-10T05:54:36;96030;;;4.4;99.8
23253;BME280;11795;47.054;15.408;2022-12-10T05:56:36;96030;;;4.3;100.0
23253;BME280;11795;47.054;15.408;2022-12-10T05:58:36;96030;;;4.4;99.9
23253;BME280;11795;47.054;15.408;2022-12-10T06:00:38;96030;;;4.3;99.9
23253;BME280;11795;47.054;15.408;2022-12-10T06:02:36;96040;;;4.2;100.0
23253;BME280;11795;47.054;15.408;2022-12-10T06:04:36;96040;;;4.3;99.8
23253;BME280;11795;47.054;15.408;2022-12-10T06:06:37;96030;;;4.3;100.0
23253;BME280;11795;47.054;15.408;2022-12-10T06:08:36;96020;;;4.5;100.0
23253;BME280;11795;47.054;15.408;2022-12-10T06:10:36;96030;;;4.3;100.0
23253;BME280;11795;47.054;15.408;2022-12-10T06:12:36;96030;;;4.3;100.0
23253;BME280;11795;47.054;15.408;2022-12-10T06:14:36;96030;;;4.4;100.0
23253;BME280;11795;47.054;15.408;2022-12-10T06:16:36;96030;;;4.3;100.0
23253;BME280;11795;47.054;15.408;2022-12-10T06:18:36;96040;;;4.5;100.0
23253;BME280;11795;47.054;15.408;2022-12-10T06:20:37;96040;;;4.3;100.0
23253;BME280;11795;47.054;15.408;2022-12-10T06:22:36;96040;;;4.3;100.0
23253;BME280;11795;47.054;15.408;2022-12-10T06:24:36;96040;;;4.4;100.0
23253;BME280;11795;47.054;15.408;2022-12-10T06:26:36;96040;;;4.3;100.0
23253;BME280;11795;47.054;15.408;2022-12-10T06:28:36;96040;;;4.5;100.0
23253;BME280;11795;47.054;15.408;2022-12-10T06:30:36;96040;;;4.4;100.0
23253;BME280;11795;47.054;15.408;2022-12-10T06:32:36;96040;;;4.3;100.0
23253;BME280;11795;47.054;15.408;2022-12-10T06:34:36;96040;;;4.5;100.0
23253;BME280;11795;47.054;15.408;2022-12-10T06:36:36;96040;;;4.4;100.0
23253;BME280;11795;47.054;15.408;2022-12-10T06:38:36;96040;;;4.6;100.0
23253;BME280;11795;47.054;15.408;2022-12-10T06:40:38;96040;;;4.4;100.0
23253;BME280;11795;47.054;15.408;2022-12-10T06:42:36;96040;;;4.3;100.0
23253;BME280;11795;47.054;15.408;2022-12-10T06:44:36;96040;;;4.5;100.0
23253;BME280;11795;47.054;15.408;2022-12-10T06:46:36;96030;;;4.3;100.0
23253;BME280;11795;47.054;15.408;2022-12-10T06:48:36;96030;;;4.5;100.0
23253;BME280;11795;47.054;15.408;2022-12-10T06:50:36;96030;;;4.4;100.0
23253;BME280;11795;47.054;15.408;2022-12-10T06:52:36;96020;;;4.3;100.0
23253;BME280;11795;47.054;15.408;2022-12-10T06:54:36;96030;;;4.5;100.0
23253;BME280;11795;47.054;15.408;2022-12-10T06:56:36;96030;;;4.4;100.0
23253;BME280;11795;47.054;15.408;2022-12-10T06:58:36;96020;;;4.6;100.0
23253;BME280;11795;47.054;15.408;2022-12-10T07:00:36;96020;;;4.4;100.0
23253;BME280;11795;47.054;15.408;2022-12-10T07:02:36;96030;;;4.4;100.0
23253;BME280;11795;47.054;15.408;2022-12-10T07:04:37;96030;;;4.5;100.0
23253;BME280;11795;47.054;15.408;2022-12-10T07:06:36;96030;;;4.4;100.0
23253;BME280;11795;47.054;15.408;2022-12-10T07:08:36;96030;;;4.6;100.0
23253;BME280;11795;47.054;15.408;2022-12-10T07:10:36;96030;;;4.4;100.0
23253;BME280;11795;47.054;15.408;2022-12-10T07:12:36;96030;;;4.4;100.0
23253;BME280;11795;47.054;15.408;2022-12-10T07:14:36;96030;;;4.5;100.0
23253;BME280;11795;47.054;15.408;2022-12-10T07:16:37;96030;;;4.4;100.0
23253;BME280;11795;47.054;15.408;2022-12-10T07:18:36;96030;;;4.6;100.0
23253;BME280;11795;47.054;15.408;2022-12-10T07:20:36;96030;;;4.5;99.8
23253;BME280;11795;47.054;15.408;2022-12-10T07:22:36;96030;;;4.5;100.0
23253;BME280;11795;47.054;15.408;2022-12-10T07:24:36;96030;;;4.6;99.7
23253;BME280;11795;47.054;15.408;2022-12-10T07:26:38;96030;;;4.6;99.6
23253;BME280;11795;47.054;15.408;2022-12-10T07:28:36;96030;;;4.8;98.8
23253;BME280;11795;47.054;15.408;2022-12-10T07:30:36;96030;;;4.6;99.0
23253;BME280;11795;47.054;15.408;2022-12-10T07:32:36;96030;;;4.6;99.3
23253;BME280;11795;47.054;15.408;2022-12-10T07:34:36;96030;;;4.6;99.0
23253;BME280;11795;47.054;15.408;2022-12-10T07:36:36;96020;;;4.5;99.6
23253;BME280;11795;47.054;15.408;2022-12-10T07:38:36;96010;;;4.7;99.6
23253;BME280;11795;47.054;15.408;2022-12-10T07:40:36;96010;;;4.6;99.8
23253;BME280;11795;47.054;15.408;2022-12-10T07:42:36;96000;;;4.6;100.0
23253;BME280;11795;47.054;15.408;2022-12-10T07:44:36;96020;;;4.7;99.5
23253;BME280;11795;47.054;15.408;2022-12-10T07:46:37;96020;;;4.6;99.7
23253;BME280;11795;47.054;15.408;2022-12-10T07:48:37;96020;;;4.8;99.7
23253;BME280;11795;47.054;15.408;2022-12-10T07:50:36;96030;;;4.7;99.7
23253;BME280;11795;47.054;15.408;2022-12-10T07:52:36;96030;;;4.6;100.0
23253;BME280;11795;47.054;15.408;2022-12-10T07:54:36;96030;;;4.8;99.6
23253;BME280;11795;47.054;15.408;2022-12-10T07:56:36;96030;;;4.7;98.9
23253;BME280;11795;47.054;15.408;2022-12-10T07:58:36;96040;;;4.8;98.9
23253;BME280;11795;47.054;15.408;2022-12-10T08:00:36;96040;;;4.7;98.7
23253;BME280;11795;47.054;15.408;2022-12-10T08:02:36;96030;;;4.7;98.9
23253;BME280;11795;47.054;15.408;2022-12-10T08:04:37;96040;;;4.8;98.6
23253;BME280;11795;47.054;15.408;2022-12-10T08:06:36;96040;;;4.7;98.9
23253;BME280;11795;47.054;15.408;2022-12-10T08:08:37;96050;;;4.8;98.9
23253;BME280;11795;47.054;15.408;2022-12-10T08:10:37;96050;;;4.7;99.0
23253;BME280;11795;47.054;15.408;2022-12-10T08:12:36;96040;;;4.7;99.2
23253;BME280;11795;47.054;15.408;2022-12-10T08:14:36;96040;;;4.8;99.0
23253;BME280;11795;47.054;15.408;2022-12-10T08:16:36;96050;;;4.6;99.5
23253;BME280;11795;47.054;15.408;2022-12-10T08:18:36;96050;;;4.8;99.8
23253;BME280;11795;47.054;15.408;2022-12-10T08:20:36;96050;;;4.7;99.6
23253;BME280;11795;47.054;15.408;2022-12-10T08:22:36;96050;;;4.7;99.9
23253;BME280;11795;47.054;15.408;2022-12-10T08:24:36;96050;;;4.7;99.5
23253;BME280;11795;47.054;15.408;2022-12-10T08:26:36;96050;;;4.6;100.0
23253;BME280;11795;47.054;15.408;2022-12-10T08:28:36;96040;;;4.8;100.0
23253;BME280;11795;47.054;15.408;2022-12-10T08:30:36;96050;;;4.7;99.9
23253;BME280;11795;47.054;15.408;2022-12-10T08:32:36;96050;;;4.6;100.0
23253;BME280;11795;47.054;15.408;2022-12-10T08:34:36;96050;;;4.7;100.0
23253;BME280;11795;47.054;15.408;2022-12-10T08:36:36;96050;;;4.6;100.0
23253;BME280;11795;47.054;15.408;2022-12-10T08:38:36;96050;;;4.8;100.0
23253;BME280;11795;47.054;15.408;2022-12-10T08:40:38;96050;;;4.7;100.0
23253;BME280;11795;47.054;15.408;2022-12-10T08:42:36;96040;;;4.7;100.0
23253;BME280;11795;47.054;15.408;2022-12-10T08:44:36;96040;;;4.8;99.7
23253;BME280;11795;47.054;15.408;2022-12-10T08:46:36;96050;;;4.8;99.8
23253;BME280;11795;47.054;15.408;2022-12-10T08:48:37;96060;;;4.8;99.2
23253;BME280;11795;47.054;15.408;2022-12-10T08:50:36;96050;;;4.8;99.0
23253;BME280;11795;47.054;15.408;2022-12-10T08:52:36;96050;;;4.7;98.9
23253;BME280;11795;47.054;15.408;2022-12-10T08:54:36;96050;;;4.7;98.8
23253;BME280;11795;47.054;15.408;2022-12-10T08:56:36;96050;;;4.6;99.5
23253;BME280;11795;47.054;15.408;2022-12-10T08:58:36;96040;;;4.8;99.7
23253;BME280;11795;47.054;15.408;2022-12-10T09:00:36;96040;;;4.7;99.7
23253;BME280;11795;47.054;15.408;2022-12-10T09:02:36;96050;;;4.8;99.7
23253;BME280;11795;47.054;15.408;2022-12-10T09:04:36;96050;;;4.9;99.1
23253;BME280;11795;47.054;15.408;2022-12-10T09:06:36;96050;;;4.8;98.4
23253;BME280;11795;47.054;15.408;2022-12-10T09:08:37;96050;;;4.8;98.2
23253;BME280;11795;47.054;15.408;2022-12-10T09:10:37;96050;;;4.7;97.9
23253;BME280;11795;47.054;15.408;2022-12-10T09:12:36;96060;;;4.6;98.5
23253;BME280;11795;47.054;15.408;2022-12-10T09:14:38;96060;;;4.8;98.5
23253;BME280;11795;47.054;15.408;2022-12-10T09:16:37;96050;;;4.7;98.8
23253;BME280;11795;47.054;15.408;2022-12-10T09:18:36;96050;;;4.8;99.0
23253;BME280;11795;47.054;15.408;2022-12-10T09:20:36;96050;;;4.7;99.1
23253;BME280;11795;47.054;15.408;2022-12-10T09:22:37;96050;;;4.7;99.6
23253;BME280;11795;47.054;15.408;2022-12-10T09:24:36;96050;;;4.9;98.9
23253;BME280;11795;47.054;15.408;2022-12-10T09:26:36;96050;;;4.7;98.9
23253;BME280;11795;47.054;15.408;2022-12-10T09:28:37;96050;;;4.9;99.0
23253;BME280;11795;47.054;15.408;2022-12-10T09:30:36;96050;;;4.8;98.9
23253;BME280;11795;47.054;15.408;2022-12-10T09:32:36;96040;;;4.7;98.9
23253;BME280;11795;47.054;15.408;2022-12-10T09:34:36;96040;;;4.8;98.5
23253;BME280;11795;47.054;15.408;2022-12-10T09:36:36;96050;;;4.8;98.5
23253;BME280;11795;47.054;15.408;2022-12-10T09:38:38;96040;;;4.9;98.6
23253;BME280;11795;47.054;15.408;2022-12-10T09:40:40;96040;;;4.8;98.6
23253;BME280;11795;47.054;15.408;2022-12-10T09:42:44;96050;;;4.8;99.0
23253;BME280;11795;47.054;15.408;2022-12-10T09:44:44;96040;;;4.8;98.7
23253;BME280;11795;47.054;15.408;2022-12-10T09:46:45;96040;;;4.9;98.8
23253;BME280;11795;47.054;15.408;2022-12-10T09:48:42;96040;;;5.0;98.3
23253;BME280;11795;47.054;15.408;2022-12-10T09:50:46;96050;;;4.9;98.0
23253;BME280;11795;47.054;15.408;2022-12-10T09:52:39;96040;;;4.8;98.1
23253;BME280;11795;47.054;15.408;2022-12-10T09:54:41;96030;;;4.9;98.0
23253;BME280;11795;47.054;15.408;2022-12-10T09:56:37;96030;;;4.8;98.3
23253;BME280;11795;47.054;15.408;2022-12-10T09:58:37;96030;;;5.0;98.5
23253;BME280;11795;47.054;15.408;2022-12-10T10:00:38;96030;;;4.8;98.3
23253;BME280;11795;47.054;15.408;2022-12-10T10:02:37;96030;;;4.8;98.7
23253;BME280;11795;47.054;15.408;2022-12-10T10:04:36;96030;;;4.9;98.0
23253;BME280;11795;47.054;15.408;2022-12-10T10:06:37;96030;;;4.8;98.0
23253;BME280;11795;47.054;15.408;2022-12-10T10:08:40;96020;;;5.0;98.1
23253;BME280;11795;47.054;15.408;2022-12-10T10:10:38;96020;;;4.8;98.0
23253;BME280;11795;47.054;15.408;2022-12-10T10:12:38;96020;;;4.8;98.5
23253;BME280;11795;47.054;15.408;2022-12-10T10:14:37;96010;;;4.9;97.9
23253;BME280;11795;47.054;15.408;2022-12-10T10:16:40;96010;;;4.9;97.9
23253;BME280;11795;47.054;15.408;2022-12-10T10:18:39;96000;;;5.0;97.6
23253;BME280;11795;47.054;15.408;2022-12-10T10:20:36;96000;;;5.0;96.7
23253;BME280;11795;47.054;15.408;2022-12-10T10:22:36;96000;;;4.9;96.3
23253;BME280;11795;47.054;15.408;2022-12-10T10:24:39;95990;;;4.8;96.4
23253;BME280;11795;47.054;15.408;2022-12-10T10:26:36;95990;;;4.7;97.3
23253;BME280;11795;47.054;15.408;2022-12-10T10:28:39;95980;;;4.9;97.2
23253;BME280;11795;47.054;15.408;2022-12-10T10:30:36;95980;;;4.7;97.2
23253;BME280;11795;47.054;15.408;2022-12-10T10:32:47;95980;;;4.7;97.8
23253;BME280;11795;47.054;15.408;2022-12-10T10:34:39;95980;;;4.8;97.7
23253;BME280;11795;47.054;15.408;2022-12-10T10:36:37;95980;;;4.8;97.1
23253;BME280;11795;47.054;15.408;2022-12-10T10:38:36;95970;;;4.8;97.7
23253;BME280;11795;47.054;15.408;2022-12-10T10:40:39;95970;;;4.8;97.8
23253;BME280;11795;47.054;15.408;2022-12-10T10:42:39;95960;;;4.8;98.3
23253;BME280;11795;47.054;15.408;2022-12-10T10:44:37;95960;;;4.9;97.6
23253;BME280;11795;47.054;15.408;2022-12-10T10:46:38;95950;;;5.0;95.8
23253;BME280;11795;47.054;15.408;2022-12-10T10:48:36;95950;;;4.9;95.8
23253;BME280;11795;47.054;15.408;2022-12-10T10:50:38;95960;;;4.8;96.3
23253;BME280;11795;47.054;15.408;2022-12-10T10:52:38;95950;;;4.7;96.9
23253;BME280;11795;47.054;15.408;2022-12-10T10:54:39;95950;;;4.7;97.0
23253;BME280;11795;47.054;15.408;2022-12-10T10:56:40;95950;;;4.6;97.6
23253;BME280;11795;47.054;15.408;2022-12-10T10:58:46;95960;;;4.7;98.1
23253;BME280;11795;47.054;15.408;2022-12-10T11:00:36;95950;;;4.7;97.9
23253;BME280;11795;47.054;15.408;2022-12-10T11:02:40;95950;;;4.6;98.0
23253;BME280;11795;47.054;15.408;2022-12-10T11:04:37;95960;;;4.8;97.8
23253;BME280;11795;47.054;15.408;2022-12-10T11:06:36;95960;;;4.8;98.0
23253;BME280;11795;47.054;15.408;2022-12-10T11:08:37;95950;;;4.9;98.3
23253;BME280;11795;47.054;15.408;2022-12-10T11:10:46;95950;;;4.9;97.0
23253;BME280;11795;47.054;15.408;2022-12-10T11:12:39;95940;;;4.8;97.3
23253;BME280;11795;47.054;15.408;2022-12-10T11:14:39;95940;;;4.8;96.9
23253;BME280;11795;47.054;15.408;2022-12-10T11:16:36;95930;;;4.8;96.5
23253;BME280;11795;47.054;15.408;2022-12-10T11:18:38;95930;;;4.9;96.7
23253;BME280;11795;47.054;15.408;2022-12-10T11:20:37;95930;;;4.8;96.7